.
WxDataArchive / Data Records for 2014-12-05
2014-12-04 December 2014 2014-12-06

Data Records for Friday, 05 December 2014

Time	Temp	Chill	HIndex	Humid	Dewpt	 Wind 	HiWind	WindDir	Rain 	Barom
-----	----	-----	------	-----	-----	------	------	-------	-----	-----
00:00	31.6	31.6	31.6	78	25.5	2	5	112	0.00	30.315 
00:05	31.6	31.6	31.6	78	25.5	2	9	90	0.00	30.315 
00:10	31.6	31.6	31.6	78	25.5	2	4	90	0.00	30.315 
00:15	31.8	31.8	31.8	78	25.7	2	4	90	0.00	30.312 
00:20	31.8	31.8	31.8	78	25.7	1	3	90	0.00	30.312 
00:25	31.8	31.8	31.8	78	25.7	2	5	90	0.00	30.312 
00:30	31.8	31.8	31.8	78	25.7	2	7	90	0.00	30.303 
00:35	31.8	31.8	31.8	78	25.7	2	6	90	0.00	30.303 
00:40	31.8	31.8	31.8	78	25.7	2	5	112	0.00	30.303 
00:45	31.8	31.8	31.8	78	25.7	1	4	112	0.00	30.299 
00:50	31.8	31.8	31.8	79	26.0	1	5	112	0.00	30.299 
00:55	31.8	31.8	31.8	79	26.0	1	3	112	0.00	30.299 
01:00	31.8	31.8	31.8	79	26.0	1	4	90	0.00	30.297 
01:05	31.8	31.8	31.8	79	26.0	1	3	90	0.00	30.297 
01:10	31.8	31.8	31.8	78	25.7	2	5	90	0.00	30.297 
01:15	31.9	31.9	31.9	78	25.8	1	3	68	0.00	30.299 
01:20	31.9	31.9	31.9	78	25.8	2	4	68	0.00	30.299 
01:25	31.9	31.9	31.9	78	25.8	2	6	90	0.00	30.299 
01:30	31.9	31.9	31.9	78	25.8	2	4	90	0.00	30.299 
01:35	31.9	31.9	31.9	78	25.8	2	4	90	0.00	30.299 
01:40	31.9	31.9	31.9	79	26.1	1	5	90	0.00	30.299 
01:45	31.9	31.9	31.9	79	26.1	1	3	90	0.00	30.294 
01:50	31.9	31.9	31.9	80	26.4	1	3	90	0.00	30.294 
01:55	31.9	31.9	31.9	80	26.4	1	5	90	0.00	30.294 
02:00	31.9	31.9	31.9	80	26.4	1	5	90	0.00	30.306 
02:05	31.9	31.9	31.9	80	26.4	1	3	90	0.00	30.306 
02:10	31.9	31.9	31.9	80	26.4	1	3	90	0.00	30.306 
02:15	31.9	31.9	31.9	80	26.4	2	4	90	0.00	30.309 
02:20	31.9	31.9	31.9	80	26.4	1	4	90	0.00	30.309 
02:25	31.9	31.9	31.9	80	26.4	1	3	90	0.00	30.309 
02:30	32.1	32.1	32.1	80	26.6	2	6	90	0.00	30.307 
02:35	31.9	31.9	31.9	80	26.4	1	3	90	0.00	30.307 
02:40	31.9	31.9	31.9	81	26.7	1	5	90	0.00	30.307 
02:45	31.9	31.9	31.9	81	26.7	1	4	90	0.00	30.303 
02:50	31.9	31.9	31.9	81	26.7	1	5	90	0.00	30.303 
02:55	31.9	31.9	31.9	81	26.7	1	3	90	0.00	30.303 
03:00	31.9	31.9	31.9	81	26.7	1	4	90	0.00	30.302 
03:05	31.9	31.9	31.9	81	26.7	2	6	90	0.00	30.302 
03:10	31.9	31.9	31.9	81	26.7	1	4	90	0.00	30.302 
03:15	31.9	31.9	31.9	81	26.7	2	5	90	0.00	30.293 
03:20	32.1	32.1	32.1	81	26.9	1	4	90	0.00	30.293 
03:25	32.1	32.1	32.1	81	26.9	1	4	90	0.00	30.293 
03:30	32.1	32.1	32.1	81	26.9	1	4	90	0.00	30.280 
03:35	32.1	32.1	32.1	81	26.9	1	3	90	0.00	30.280 
03:40	32.2	32.2	32.2	81	27.0	2	6	90	0.00	30.280 
03:45	32.2	32.2	32.2	81	27.0	2	5	90	0.00	30.276 
03:50	32.2	32.2	32.2	81	27.0	1	5	90	0.00	30.276 
03:55	32.2	32.2	32.2	81	27.0	2	6	90	0.00	30.276 
04:00	32.2	32.2	32.2	80	26.7	2	5	90	0.00	30.276 
04:05	32.4	32.4	32.4	80	26.9	2	5	90	0.00	30.276 
04:10	32.4	32.4	32.4	80	26.9	1	5	90	0.00	30.276 
04:15	32.4	32.4	32.4	80	26.9	2	4	90	0.00	30.272 
04:20	32.4	32.4	32.4	80	26.9	2	4	90	0.00	30.272 
04:25	32.4	32.4	32.4	81	27.2	2	5	90	0.00	30.272 
04:30	32.4	32.4	32.4	81	27.2	2	4	68	0.00	30.275 
04:35	32.4	32.4	32.4	81	27.2	1	4	68	0.00	30.275 
04:40	32.4	32.4	32.4	81	27.2	3	7	68	0.00	30.275 
04:45	32.4	32.4	32.4	81	27.2	2	5	68	0.00	30.277 
04:50	32.4	32.4	32.4	81	27.2	1	4	68	0.00	30.277 
04:55	32.4	32.4	32.4	81	27.2	1	3	68	0.00	30.277 
05:00	32.2	32.2	32.2	81	27.0	2	3	68	0.00	30.268 
05:05	32.2	32.2	32.2	81	27.0	1	4	68	0.00	30.268 
05:10	32.2	32.2	32.2	82	27.3	1	4	90	0.00	30.268 
05:15	32.2	32.2	32.2	82	27.3	1	3	90	0.00	30.261 
05:20	32.2	32.2	32.2	82	27.3	1	3	90	0.00	30.261 
05:25	32.2	32.2	32.2	82	27.3	1	4	90	0.00	30.261 
05:30	32.2	32.2	32.2	82	27.3	1	3	90	0.00	30.261 
05:35	32.2	32.2	32.2	82	27.3	1	3	90	0.00	30.261 
05:40	32.4	32.4	32.4	82	27.5	1	4	90	0.00	30.261 
05:45	32.4	32.4	32.4	81	27.2	1	4	90	0.00	30.256 
05:50	32.4	32.4	32.4	81	27.2	1	3	90	0.00	30.256 
05:55	32.4	32.4	32.4	81	27.2	1	3	90	0.00	30.256 
06:00	32.4	32.4	32.4	81	27.2	1	2	90	0.00	30.261 
06:05	32.4	32.4	32.4	81	27.2	0	2	90	0.00	30.261 
06:10	32.4	32.4	32.4	81	27.2	1	4	90	0.00	30.261 
06:15	32.4	32.4	32.4	80	26.9	1	4	90	0.00	30.257 
06:20	32.4	32.4	32.4	80	26.9	1	3	90	0.00	30.257 
06:25	32.4	32.4	32.4	80	26.9	0	2	90	0.00	30.257 
06:30	32.4	32.4	32.4	80	26.9	1	3	90	0.00	30.259 
06:35	32.4	32.4	32.4	81	27.2	1	3	90	0.00	30.259 
06:40	32.4	32.4	32.4	81	27.2	1	2	90	0.00	30.259 
06:45	32.4	32.4	32.4	81	27.2	0	2	90	0.00	30.266 
06:50	32.4	32.4	32.4	81	27.2	0	2	90	0.00	30.266 
06:55	32.4	32.4	32.4	81	27.2	0	1	90	0.00	30.266 
07:00	32.5	32.5	32.5	81	27.3	0	1	90	0.00	30.261 
07:05	32.5	32.5	32.5	81	27.3	0	2	90	0.00	30.261 
07:10	32.5	32.5	32.5	81	27.3	0	3	90	0.00	30.261 
07:15	32.5	32.5	32.5	81	27.3	1	2	90	0.00	30.261 
07:20	32.5	32.5	32.5	81	27.3	0	2	90	0.00	30.261 
07:25	32.5	32.5	32.5	81	27.3	0	2	90	0.00	30.261 
07:30	32.5	32.5	32.5	81	27.3	0	2	90	0.00	30.259 
07:35	32.7	32.7	32.7	81	27.5	0	1	90	0.00	30.259 
07:40	32.7	32.7	32.7	81	27.5	0	2	90	0.00	30.259 
07:45	32.7	32.7	32.7	81	27.5	0	1	90	0.00	30.259 
07:50	32.7	32.7	32.7	80	27.2	0	1	90	0.00	30.259 
07:55	32.8	32.8	32.8	80	27.3	0	2	90	0.00	30.259 
08:00	32.8	32.8	32.8	80	27.3	0	2	90	0.00	30.259 
08:05	32.8	32.8	32.8	80	27.3	1	3	90	0.00	30.259 
08:10	32.8	32.8	32.8	80	27.3	0	2	90	0.00	30.259 
08:15	32.8	32.8	32.8	80	27.3	0	2	90	0.00	30.254 
08:20	32.9	32.9	32.9	80	27.4	1	3	90	0.00	30.254 
08:25	32.9	32.9	32.9	80	27.4	0	2	90	0.00	30.254 
08:30	32.9	32.9	32.9	80	27.4	1	3	90	0.00	30.251 
08:35	32.9	32.9	32.9	80	27.4	0	3	90	0.00	30.251 
08:40	32.9	32.9	32.9	81	27.7	0	2	90	0.00	30.251 
08:45	33.1	33.1	33.1	81	27.9	1	3	90	0.00	30.244 
08:50	33.1	33.1	33.1	81	27.9	0	2	90	0.00	30.244 
08:55	33.1	33.1	33.1	81	27.9	0	1	90	0.00	30.244 
09:00	33.2	33.2	33.2	80	27.7	0	2	90	0.00	30.255 
09:05	33.2	33.2	33.2	80	27.7	1	3	90	0.00	30.255 
09:10	33.4	33.4	33.4	80	27.9	1	3	90	0.00	30.255 
09:15	33.5	33.5	33.5	80	28.0	1	3	90	0.00	30.244 
09:20	33.5	33.5	33.5	80	28.0	1	3	90	0.00	30.244 
09:25	33.7	33.7	33.7	79	27.9	1	4	90	0.00	30.244 
09:30	33.8	33.8	33.8	80	28.3	0	3	90	0.00	30.247 
09:35	34.0	34.0	34.0	79	28.2	0	2	90	0.00	30.247 
09:40	34.0	34.0	34.0	79	28.2	1	3	90	0.00	30.247 
09:45	34.1	34.1	34.1	79	28.3	1	3	90	0.00	30.242 
09:50	34.3	34.3	34.3	79	28.5	0	2	90	0.00	30.242 
09:55	34.4	34.4	34.4	79	28.6	0	2	90	0.00	30.242 
10:00	34.4	34.4	34.4	78	28.3	1	3	90	0.00	30.247 
10:05	34.4	34.4	34.4	78	28.3	0	1	90	0.00	30.247 
10:10	34.6	34.6	34.6	78	28.5	0	2	90	0.00	30.247 
10:15	34.7	34.7	34.7	78	28.6	0	1	90	0.00	30.253 
10:20	34.7	34.7	34.7	78	28.6	0	1	90	0.00	30.253 
10:25	34.9	34.9	34.9	78	28.7	0	1	90	0.00	30.253 
10:30	34.9	34.9	34.9	78	28.7	0	3	90	0.00	30.249 
10:35	35.0	35.0	35.0	79	29.2	0	1	90	0.00	30.249 
10:40	35.2	35.2	35.2	78	29.0	0	1	90	0.00	30.249 
10:45	35.3	35.3	35.3	78	29.1	0	2	90	0.00	30.255 
10:50	35.5	35.5	35.5	78	29.3	0	2	90	0.00	30.255 
10:55	35.6	35.6	35.6	78	29.4	0	2	90	0.00	30.255 
11:00	35.8	35.8	35.8	78	29.6	0	1	90	0.00	30.249 
11:05	35.9	35.9	35.9	78	29.7	0	2	90	0.00	30.249 
11:10	35.9	35.9	35.9	78	29.7	0	2	90	0.00	30.249 
11:15	36.0	36.0	36.0	78	29.8	0	1	90	0.00	30.250 
11:20	36.2	36.2	36.2	78	30.0	0	1	90	0.00	30.250 
11:25	36.2	36.2	36.2	78	30.0	0	0	---	0.00	30.250 
11:30	36.5	36.5	36.5	78	30.3	0	1	90	0.00	30.240 
11:35	36.5	36.5	36.5	78	30.3	0	1	90	0.00	30.240 
11:40	36.8	36.8	36.8	78	30.6	0	1	90	0.00	30.240 
11:45	36.9	36.9	36.9	78	30.7	0	1	90	0.00	30.241 
11:50	37.0	37.0	37.0	78	30.8	0	1	90	0.00	30.241 
11:55	37.3	37.3	37.3	78	31.1	0	1	90	0.00	30.241 
12:00	37.6	37.6	37.6	78	31.4	0	2	90	0.00	30.225 
12:05	37.8	37.8	37.8	78	31.6	0	1	90	0.00	30.225 
12:10	38.0	38.0	38.0	79	32.1	0	0	---	0.00	30.225 
12:15	38.3	38.3	38.3	78	32.1	0	1	90	0.00	30.217 
12:20	38.5	38.5	38.5	77	31.9	0	1	90	0.00	30.217 
12:25	38.6	38.6	38.6	77	32.0	0	1	90	0.00	30.217 
12:30	38.6	38.6	38.6	77	32.0	0	1	90	0.00	30.207 
12:35	38.6	38.6	38.6	77	32.0	0	0	---	0.00	30.207 
12:40	38.9	38.9	38.9	77	32.3	0	1	90	0.00	30.207 
12:45	39.1	39.1	39.1	77	32.5	0	0	---	0.00	30.207 
12:50	39.3	39.3	39.3	77	32.7	0	1	90	0.00	30.207 
12:55	39.3	39.3	39.3	76	32.4	0	2	90	0.00	30.207 
13:00	39.5	39.5	39.5	76	32.6	0	0	---	0.00	30.198 
13:05	39.5	39.5	39.5	76	32.6	0	0	---	0.00	30.198 
13:10	39.6	39.6	39.6	76	32.7	0	0	---	0.00	30.198 
13:15	39.6	39.6	39.6	76	32.7	0	0	---	0.00	30.196 
13:20	39.6	39.6	39.6	76	32.7	0	1	90	0.00	30.196 
13:25	39.6	39.6	39.6	76	32.7	0	1	90	0.00	30.196 
13:30	39.5	39.5	39.5	75	32.2	0	1	90	0.00	30.186 
13:35	39.5	39.5	39.5	76	32.6	0	0	---	0.00	30.186 
13:40	39.5	39.5	39.5	76	32.6	0	0	---	0.00	30.186 
13:45	39.6	39.6	39.6	76	32.7	0	0	---	0.00	30.183 
13:50	39.8	39.8	39.8	76	32.9	0	1	90	0.00	30.183 
13:55	39.6	39.6	39.6	76	32.7	0	1	90	0.00	30.183 
14:00	39.5	39.5	39.5	76	32.6	0	0	---	0.00	30.175 
14:05	39.6	39.6	39.6	77	33.0	0	1	90	0.00	30.175 
14:10	39.5	39.5	39.5	76	32.6	0	1	90	0.00	30.175 
14:15	39.3	39.3	39.3	77	32.7	0	3	90	0.00	30.169 
14:20	39.3	39.3	39.3	77	32.7	0	0	---	0.00	30.169 
14:25	39.5	39.5	39.5	77	32.9	0	1	90	0.00	30.169 
14:30	39.5	39.5	39.5	78	33.2	0	0	---	0.00	30.167 
14:35	39.3	39.3	39.3	78	33.0	0	1	90	0.00	30.167 
14:40	39.3	39.3	39.3	80	33.7	0	1	90	0.00	30.167 
14:45	39.3	39.3	39.3	80	33.7	0	0	---	0.00	30.170 
14:50	39.2	39.2	39.2	81	33.9	0	0	---	0.00	30.170 
14:55	39.2	39.2	39.2	81	33.9	0	0	---	0.00	30.170 
15:00	39.2	39.2	39.2	81	33.9	0	0	---	0.00	30.172 
15:05	39.2	39.2	39.2	82	34.2	0	0	---	0.01	30.172 
15:10	39.2	39.2	39.2	82	34.2	0	0	---	0.00	30.172 
15:15	39.2	39.2	39.2	83	34.5	0	1	90	0.00	30.169 
15:20	39.1	39.1	39.1	84	34.7	0	1	90	0.00	30.169 
15:25	38.8	38.8	38.8	84	34.4	0	2	90	0.00	30.169 
15:30	38.8	38.8	38.8	84	34.4	0	1	90	0.00	30.169 
15:35	38.6	38.6	38.6	85	34.5	0	2	90	0.00	30.169 
15:40	38.6	38.6	38.6	85	34.5	0	2	90	0.00	30.169 
15:45	38.8	38.8	38.8	85	34.7	0	2	90	0.00	30.169 
15:50	38.8	38.8	38.8	85	34.7	0	1	90	0.00	30.169 
15:55	38.8	38.8	38.8	85	34.7	0	2	90	0.00	30.169 
16:00	38.6	38.6	38.6	85	34.5	0	2	90	0.00	30.164 
16:05	38.6	38.6	38.6	86	34.8	0	1	90	0.00	30.164 
16:10	38.5	38.5	38.5	85	34.4	0	3	90	0.00	30.164 
16:15	38.3	38.3	38.3	85	34.2	0	2	90	0.00	30.162 
16:20	38.2	38.2	38.2	86	34.4	0	2	90	0.00	30.162 
16:25	38.2	38.2	38.2	86	34.4	0	2	90	0.00	30.162 
16:30	38.2	38.2	38.2	86	34.4	0	1	90	0.00	30.170 
16:35	38.2	38.2	38.2	86	34.4	0	0	---	0.00	30.170 
16:40	38.2	38.2	38.2	86	34.4	0	1	90	0.00	30.170 
16:45	38.2	38.2	38.2	86	34.4	0	1	90	0.00	30.172 
16:50	38.3	38.3	38.3	87	34.8	0	0	---	0.00	30.172 
16:55	38.3	38.3	38.3	87	34.8	0	0	---	0.00	30.172 
17:00	38.3	38.3	38.3	87	34.8	0	0	---	0.01	30.174 
17:05	38.3	38.3	38.3	87	34.8	0	0	---	0.00	30.174 
17:10	38.2	38.2	38.2	88	35.0	0	0	---	0.00	30.174 
17:15	38.2	38.2	38.2	88	35.0	0	0	---	0.00	30.174 
17:20	38.2	38.2	38.2	88	35.0	0	0	---	0.00	30.174 
17:25	38.0	38.0	38.0	88	34.8	0	0	---	0.00	30.174 
17:30	38.0	38.0	38.0	88	34.8	0	0	---	0.00	30.175 
17:35	38.0	38.0	38.0	88	34.8	0	0	---	0.00	30.175 
17:40	37.9	37.9	37.9	89	35.0	0	0	---	0.00	30.175 
17:45	37.9	37.9	37.9	89	35.0	0	0	---	0.00	30.187 
17:50	37.9	37.9	37.9	89	35.0	0	0	---	0.00	30.187 
17:55	37.9	37.9	37.9	89	35.0	0	0	---	0.00	30.187 
18:00	37.9	37.9	37.9	89	35.0	0	0	---	0.01	30.195 
18:05	37.9	37.9	37.9	89	35.0	0	0	---	0.00	30.195 
18:10	37.9	37.9	37.9	89	35.0	0	0	---	0.00	30.195 
18:15	37.8	37.8	37.8	89	34.9	0	0	---	0.01	30.195 
18:20	37.8	37.8	37.8	90	35.1	0	0	---	0.00	30.195 
18:25	37.8	37.8	37.8	90	35.1	0	0	---	0.00	30.195 
18:30	37.6	37.6	37.6	90	34.9	0	0	---	0.00	30.192 
18:35	37.6	37.6	37.6	90	34.9	0	0	---	0.00	30.192 
18:40	37.6	37.6	37.6	90	34.9	0	0	---	0.00	30.192 
18:45	37.5	37.5	37.5	91	35.1	0	0	---	0.01	30.190 
18:50	37.5	37.5	37.5	91	35.1	0	1	90	0.00	30.190 
18:55	37.5	37.5	37.5	91	35.1	0	0	---	0.00	30.190 
19:00	37.5	37.5	37.5	91	35.1	0	0	---	0.00	30.187 
19:05	37.5	37.5	37.5	91	35.1	0	0	---	0.00	30.187 
19:10	37.3	37.3	37.3	91	34.9	0	0	---	0.01	30.187 
19:15	37.3	37.3	37.3	91	34.9	0	0	---	0.00	30.183 
19:20	37.3	37.3	37.3	91	34.9	0	1	90	0.00	30.183 
19:25	37.3	37.3	37.3	91	34.9	0	1	90	0.00	30.183 
19:30	37.3	37.3	37.3	92	35.2	0	0	---	0.00	30.187 
19:35	37.2	37.2	37.2	92	35.1	0	0	---	0.00	30.187 
19:40	37.2	37.2	37.2	92	35.1	0	1	90	0.00	30.187 
19:45	37.2	37.2	37.2	92	35.1	0	0	---	0.00	30.188 
19:50	37.2	37.2	37.2	92	35.1	0	0	---	0.00	30.188 
19:55	37.2	37.2	37.2	92	35.1	0	0	---	0.01	30.188 
20:00	37.0	37.0	37.0	92	34.9	0	0	---	0.00	30.192 
20:05	37.0	37.0	37.0	92	34.9	0	0	---	0.00	30.192 
20:10	37.0	37.0	37.0	92	34.9	0	0	---	0.00	30.192 
20:15	37.0	37.0	37.0	92	34.9	0	2	90	0.00	30.187 
20:20	37.0	37.0	37.0	92	34.9	0	1	90	0.01	30.187 
20:25	37.0	37.0	37.0	92	34.9	0	0	---	0.00	30.187 
20:30	36.9	36.9	36.9	92	34.8	0	0	---	0.00	30.191 
20:35	36.9	36.9	36.9	92	34.8	0	0	---	0.00	30.191 
20:40	36.9	36.9	36.9	92	34.8	0	0	---	0.00	30.191 
20:45	36.9	36.9	36.9	92	34.8	0	1	90	0.00	30.189 
20:50	36.8	36.8	36.8	92	34.7	0	0	---	0.00	30.189 
20:55	36.8	36.8	36.8	92	34.7	0	0	---	0.00	30.189 
21:00	36.8	36.8	36.8	92	34.7	0	0	---	0.01	30.190 
21:05	36.8	36.8	36.8	92	34.7	0	0	---	0.00	30.190 
21:10	36.8	36.8	36.8	92	34.7	0	1	90	0.00	30.190 
21:15	36.8	36.8	36.8	92	34.7	0	2	90	0.00	30.181 
21:20	36.6	36.6	36.6	92	34.5	0	1	90	0.00	30.181 
21:25	36.6	36.6	36.6	92	34.5	0	1	90	0.00	30.181 
21:30	36.6	36.6	36.6	92	34.5	0	1	90	0.00	30.176 
21:35	36.5	36.5	36.5	92	34.4	0	1	90	0.00	30.176 
21:40	36.5	36.5	36.5	92	34.4	0	1	90	0.01	30.176 
21:45	36.5	36.5	36.5	92	34.4	0	1	90	0.00	30.173 
21:50	36.5	36.5	36.5	92	34.4	0	2	90	0.00	30.173 
21:55	36.3	36.3	36.3	92	34.2	0	3	45	0.00	30.173 
22:00	36.3	36.3	36.3	92	34.2	0	1	45	0.00	30.170 
22:05	36.3	36.3	36.3	92	34.2	0	1	45	0.00	30.170 
22:10	36.3	36.3	36.3	92	34.2	0	2	45	0.00	30.170 
22:15	36.3	36.3	36.3	92	34.2	0	1	45	0.00	30.167 
22:20	36.2	36.2	36.2	92	34.1	0	2	45	0.01	30.167 
22:25	36.2	36.2	36.2	92	34.1	0	1	45	0.00	30.167 
22:30	36.2	36.2	36.2	92	34.1	0	1	45	0.00	30.168 
22:35	36.2	36.2	36.2	92	34.1	0	1	45	0.00	30.168 
22:40	36.2	36.2	36.2	92	34.1	0	2	45	0.00	30.168 
22:45	36.0	36.0	36.0	92	33.9	0	2	45	0.00	30.162 
22:50	36.0	36.0	36.0	92	33.9	0	2	45	0.01	30.162 
22:55	36.0	36.0	36.0	92	33.9	0	1	45	0.00	30.162 
23:00	36.0	36.0	36.0	92	33.9	0	2	45	0.00	30.158 
23:05	35.9	35.9	35.9	92	33.8	0	1	90	0.00	30.158 
23:10	35.9	35.9	35.9	92	33.8	0	0	---	0.00	30.158 
23:15	35.9	35.9	35.9	92	33.8	0	1	90	0.01	30.164 
23:20	35.9	35.9	35.9	92	33.8	0	0	---	0.00	30.164 
23:25	35.9	35.9	35.9	92	33.8	0	1	90	0.00	30.164 
23:30	35.9	35.9	35.9	92	33.8	0	1	90	0.00	30.171 
23:35	35.9	35.9	35.9	92	33.8	0	0	---	0.01	30.171 
23:40	35.8	35.8	35.8	92	33.7	0	1	90	0.00	30.171 
23:45	35.8	35.8	35.8	92	33.7	0	2	90	0.00	30.163 
23:50	35.8	35.8	35.8	92	33.7	0	1	90	0.01	30.163 
23:55	35.8	35.8	35.8	92	33.7	0	1	90	0.00	30.163 

CoCoRaHS
IN-AL-39
A2 Web Hosting
Creative Commons License
GoDaddy
search engine by freefind advanced

loaded 2018-11-13 01:29:15 • last modified 2010-11-18 10:43:29
Privacy PolicyDisclaimer
• wx.awcolley.com is powered by PmWiki v.2002016 •
• all content (unless otherwise noted) © 2018 A W Colley